Time,TemperatureF,DewpointF,PressureIn,WindDirection,WindDirectionDegrees,WindSpeedMPH,WindSpeedGustMPH,Humidity,HourlyPrecipIn,Conditions,Clouds,dailyrainin,SoftwareType,DateUTC
2013-04-16 00:03:00,54.0,51.0,-100.00,ENE,64,0.0,0.0,90,0.00,,,0.02,,2013-04-16 04:03:00,
2013-04-16 00:13:00,54.0,51.0,-100.00,ENE,64,0.0,0.0,90,0.00,,,0.02,,2013-04-16 04:13:00,
2013-04-16 00:33:00,53.0,51.0,-100.00,NE,38,0.0,1.0,94,0.00,,,0.00,,2013-04-16 04:33:00,
2013-04-16 00:42:00,53.0,51.0,-100.00,NE,38,0.0,1.0,94,0.00,,,0.00,,2013-04-16 04:42:00,
2013-04-16 00:53:00,53.0,51.0,-100.00,NE,38,0.0,1.0,94,0.00,,,0.00,,2013-04-16 04:53:00,
2013-04-16 01:03:00,53.0,51.0,-100.00,NE,38,0.0,1.0,94,0.00,,,0.00,,2013-04-16 05:03:00,
2013-04-16 01:12:00,53.0,51.0,-100.00,NE,38,0.0,1.0,94,0.00,,,0.00,,2013-04-16 05:12:00,
2013-04-16 01:42:00,54.0,51.0,-100.00,SE,136,2.0,6.0,91,0.00,,,-99.99,,2013-04-16 05:42:00,
2013-04-16 01:52:00,54.0,51.0,-100.00,SE,136,2.0,6.0,91,0.00,,,-99.99,,2013-04-16 05:52:00,
2013-04-16 02:02:00,54.0,51.0,-100.00,SE,136,2.0,6.0,91,0.00,,,-99.99,,2013-04-16 06:02:00,
2013-04-16 02:12:00,54.0,51.0,-100.00,SE,136,2.0,6.0,91,0.00,,,-99.99,,2013-04-16 06:12:00,
2013-04-16 02:32:00,53.0,51.0,-100.00,SE,142,2.0,5.0,94,0.00,,,0.00,,2013-04-16 06:32:00,
2013-04-16 02:42:00,53.0,51.0,-100.00,SE,142,2.0,5.0,94,0.00,,,0.00,,2013-04-16 06:42:00,
2013-04-16 02:52:00,53.0,51.0,-100.00,SE,142,2.0,5.0,94,0.00,,,0.00,,2013-04-16 06:52:00,
2013-04-16 03:02:00,53.0,51.0,-100.00,SE,142,2.0,5.0,94,0.00,,,0.00,,2013-04-16 07:02:00,
2013-04-16 03:12:00,53.0,51.0,-100.00,SE,142,2.0,5.0,94,0.00,,,0.00,,2013-04-16 07:12:00,
2013-04-16 03:42:00,54.0,52.0,-100.00,East,81,2.0,6.0,93,0.00,,,0.00,,2013-04-16 07:42:00,
2013-04-16 03:53:00,54.0,52.0,-100.00,East,81,2.0,6.0,93,0.00,,,0.00,,2013-04-16 07:53:00,
2013-04-16 04:02:00,54.0,52.0,-100.00,East,81,2.0,6.0,93,0.00,,,0.00,,2013-04-16 08:02:00,
2013-04-16 04:12:00,54.0,52.0,-100.00,East,81,2.0,6.0,93,0.00,,,0.00,,2013-04-16 08:12:00,
2013-04-16 04:42:00,57.0,53.0,-100.00,NNW,345,2.0,6.0,86,0.00,,,0.00,,2013-04-16 08:42:00,
2013-04-16 04:52:00,57.0,53.0,-100.00,NNW,345,2.0,6.0,86,0.00,,,0.00,,2013-04-16 08:52:00,
2013-04-16 05:02:00,57.0,53.0,-100.00,NNW,345,2.0,6.0,86,0.00,,,0.00,,2013-04-16 09:02:00,
2013-04-16 05:12:00,57.0,53.0,-100.00,NNW,345,2.0,6.0,86,0.00,,,0.00,,2013-04-16 09:12:00,
2013-04-16 05:43:00,54.0,52.0,-100.00,ESE,107,2.0,6.0,92,0.00,,,0.00,,2013-04-16 09:43:00,
2013-04-16 05:53:00,54.0,52.0,-100.00,ESE,107,2.0,6.0,92,0.00,,,0.00,,2013-04-16 09:53:00,
2013-04-16 06:03:00,54.0,52.0,-100.00,ESE,107,2.0,6.0,92,0.00,,,0.00,,2013-04-16 10:03:00,
2013-04-16 06:13:00,54.0,52.0,-100.00,ESE,107,2.0,6.0,92,0.00,,,0.00,,2013-04-16 10:13:00,
2013-04-16 06:43:00,52.0,51.0,-100.00,SSE,149,1.0,3.0,96,0.00,,,0.00,,2013-04-16 10:43:00,
2013-04-16 06:53:00,52.0,51.0,-100.00,SSE,149,1.0,3.0,96,0.00,,,0.00,,2013-04-16 10:53:00,
2013-04-16 07:03:00,52.0,51.0,-100.00,SSE,149,1.0,3.0,96,0.00,,,0.00,,2013-04-16 11:03:00,
2013-04-16 07:12:00,52.0,51.0,-100.00,SSE,149,1.0,3.0,96,0.00,,,0.00,,2013-04-16 11:12:00,
2013-04-16 07:32:00,51.0,50.0,-100.00,ESE,105,0.0,0.0,97,0.00,,,0.00,,2013-04-16 11:32:00,
2013-04-16 07:42:00,51.0,50.0,-100.00,ESE,105,0.0,0.0,97,0.00,,,0.00,,2013-04-16 11:42:00,
2013-04-16 07:53:00,51.0,50.0,-100.00,ESE,105,0.0,0.0,97,0.00,,,0.00,,2013-04-16 11:53:00,
2013-04-16 08:02:00,51.0,50.0,-100.00,ESE,105,0.0,0.0,97,0.00,,,0.00,,2013-04-16 12:02:00,
2013-04-16 08:12:00,51.0,50.0,-100.00,ESE,105,0.0,0.0,97,0.00,,,0.00,,2013-04-16 12:12:00,
2013-04-16 08:42:00,55.0,54.0,-100.00,SSE,152,1.0,2.0,98,0.00,,,0.00,,2013-04-16 12:42:00,
2013-04-16 08:52:00,55.0,54.0,-100.00,SSE,152,1.0,2.0,98,0.00,,,0.00,,2013-04-16 12:52:00,
2013-04-16 09:02:00,55.0,54.0,-100.00,SSE,152,1.0,2.0,98,0.00,,,0.00,,2013-04-16 13:02:00,
2013-04-16 09:12:00,55.0,54.0,-100.00,SSE,152,1.0,2.0,98,0.00,,,0.00,,2013-04-16 13:12:00,
2013-04-16 09:42:00,66.0,57.0,-100.00,NW,310,4.0,10.0,72,0.00,,,0.00,,2013-04-16 13:42:00,
2013-04-16 09:52:00,66.0,57.0,-100.00,NW,310,4.0,10.0,72,0.00,,,0.00,,2013-04-16 13:52:00,
2013-04-16 10:02:00,66.0,57.0,-100.00,NW,310,4.0,10.0,72,0.00,,,0.00,,2013-04-16 14:02:00,
2013-04-16 10:12:00,66.0,57.0,-100.00,NW,310,4.0,10.0,72,0.00,,,0.00,,2013-04-16 14:12:00,
2013-04-16 10:42:00,71.0,58.0,-100.00,South,183,5.0,13.0,64,0.00,,,0.00,,2013-04-16 14:42:00,
2013-04-16 10:52:00,71.0,58.0,-100.00,South,183,5.0,13.0,64,0.00,,,0.00,,2013-04-16 14:52:00,
2013-04-16 11:02:00,71.0,58.0,-100.00,South,183,5.0,13.0,64,0.00,,,0.00,,2013-04-16 15:02:00,
2013-04-16 11:12:00,71.0,58.0,-100.00,South,183,5.0,13.0,64,0.00,,,0.00,,2013-04-16 15:12:00,
2013-04-16 11:43:00,74.0,58.0,-100.00,West,264,6.0,17.0,57,0.00,,,0.00,,2013-04-16 15:43:00,
2013-04-16 11:53:00,74.0,58.0,-100.00,West,264,6.0,17.0,57,0.00,,,0.00,,2013-04-16 15:53:00,
2013-04-16 12:03:00,74.0,58.0,-100.00,West,264,6.0,17.0,57,0.00,,,0.00,,2013-04-16 16:03:00,
2013-04-16 12:13:00,74.0,58.0,-100.00,West,264,6.0,17.0,57,0.00,,,0.00,,2013-04-16 16:13:00,
2013-04-16 12:42:00,77.0,59.0,-100.00,SSW,209,6.0,15.0,54,0.00,,,0.00,,2013-04-16 16:42:00,
2013-04-16 12:53:00,77.0,59.0,-100.00,SSW,209,6.0,15.0,54,0.00,,,0.00,,2013-04-16 16:53:00,
2013-04-16 13:02:00,77.0,59.0,-100.00,SSW,209,6.0,15.0,54,0.00,,,0.00,,2013-04-16 17:02:00,
2013-04-16 13:12:00,77.0,59.0,-100.00,SSW,209,6.0,15.0,54,0.00,,,0.00,,2013-04-16 17:12:00,
2013-04-16 13:43:00,80.0,61.0,-100.00,West,280,7.0,16.0,52,0.00,,,0.00,,2013-04-16 17:43:00,
2013-04-16 13:53:00,80.0,61.0,-100.00,West,280,7.0,16.0,52,0.00,,,0.00,,2013-04-16 17:53:00,
2013-04-16 14:02:00,80.0,61.0,-100.00,West,280,7.0,16.0,52,0.00,,,0.00,,2013-04-16 18:02:00,
2013-04-16 14:12:00,80.0,61.0,-100.00,West,280,7.0,16.0,52,0.00,,,0.00,,2013-04-16 18:12:00,
2013-04-16 14:43:00,80.0,60.0,-100.00,SW,225,6.0,16.0,50,0.00,,,0.00,,2013-04-16 18:43:00,
2013-04-16 14:52:00,80.0,60.0,-100.00,SW,225,6.0,16.0,50,0.00,,,0.00,,2013-04-16 18:52:00,
2013-04-16 15:02:00,80.0,60.0,-100.00,SW,225,6.0,16.0,50,0.00,,,0.00,,2013-04-16 19:02:00,
2013-04-16 15:12:00,80.0,60.0,-100.00,SW,225,6.0,16.0,50,0.00,,,0.00,,2013-04-16 19:12:00,
2013-04-16 15:43:00,81.0,60.0,-100.00,North,7,5.0,12.0,49,0.00,,,0.00,,2013-04-16 19:43:00,
2013-04-16 15:52:00,81.0,60.0,-100.00,North,7,5.0,12.0,49,0.00,,,0.00,,2013-04-16 19:52:00,
2013-04-16 16:02:00,81.0,60.0,-100.00,North,7,5.0,12.0,49,0.00,,,0.00,,2013-04-16 20:02:00,
2013-04-16 16:13:00,81.0,60.0,-100.00,North,7,5.0,12.0,49,0.00,,,0.00,,2013-04-16 20:13:00,
2013-04-16 16:32:00,83.0,58.0,-100.00,NE,55,6.0,11.0,43,0.00,,,0.00,,2013-04-16 20:32:00,
2013-04-16 16:42:00,83.0,58.0,-100.00,NE,55,6.0,11.0,43,0.00,,,0.00,,2013-04-16 20:42:00,
2013-04-16 16:52:00,83.0,58.0,-100.00,NE,55,6.0,11.0,43,0.00,,,0.00,,2013-04-16 20:52:00,
2013-04-16 17:02:00,83.0,58.0,-100.00,NE,55,6.0,11.0,43,0.00,,,0.00,,2013-04-16 21:02:00,
2013-04-16 17:12:00,83.0,58.0,-100.00,NE,55,6.0,11.0,43,0.00,,,0.00,,2013-04-16 21:12:00,
2013-04-16 17:43:00,85.0,58.0,-100.00,WNW,283,5.0,12.0,40,0.00,,,0.00,,2013-04-16 21:43:00,
2013-04-16 17:53:00,85.0,58.0,-100.00,WNW,283,5.0,12.0,40,0.00,,,0.00,,2013-04-16 21:53:00,
2013-04-16 18:03:00,85.0,58.0,-100.00,WNW,283,5.0,12.0,40,0.00,,,0.00,,2013-04-16 22:03:00,
2013-04-16 18:13:00,85.0,58.0,-100.00,WNW,283,5.0,12.0,40,0.00,,,0.00,,2013-04-16 22:13:00,
2013-04-16 18:43:00,81.0,55.0,-100.00,WNW,288,3.0,11.0,41,0.00,,,0.00,,2013-04-16 22:43:00,
2013-04-16 18:52:00,81.0,55.0,-100.00,WNW,288,3.0,11.0,41,0.00,,,0.00,,2013-04-16 22:52:00,
2013-04-16 19:02:00,81.0,55.0,-100.00,WNW,288,3.0,11.0,41,0.00,,,0.00,,2013-04-16 23:02:00,
2013-04-16 19:12:00,81.0,55.0,-100.00,WNW,288,3.0,11.0,41,0.00,,,0.00,,2013-04-16 23:12:00,
2013-04-16 19:32:00,81.0,57.0,-100.00,WSW,237,2.0,9.0,44,0.00,,,0.00,,2013-04-16 23:32:00,
2013-04-16 19:43:00,81.0,57.0,-100.00,WSW,237,2.0,9.0,44,0.00,,,0.00,,2013-04-16 23:43:00,
2013-04-16 19:52:00,81.0,57.0,-100.00,WSW,237,2.0,9.0,44,0.00,,,0.00,,2013-04-16 23:52:00,
2013-04-16 20:02:00,81.0,57.0,-100.00,WSW,237,2.0,9.0,44,0.00,,,0.00,,2013-04-17 00:02:00,
2013-04-16 20:12:00,81.0,57.0,-100.00,WSW,237,2.0,9.0,44,0.00,,,0.00,,2013-04-17 00:12:00,
2013-04-16 20:42:00,77.0,57.0,-100.00,NNW,345,2.0,7.0,51,0.00,,,0.00,,2013-04-17 00:42:00,
2013-04-16 20:52:00,77.0,57.0,-100.00,NNW,345,2.0,7.0,51,0.00,,,0.00,,2013-04-17 00:52:00,
2013-04-16 21:02:00,77.0,57.0,-100.00,NNW,345,2.0,7.0,51,0.00,,,0.00,,2013-04-17 01:02:00,
2013-04-16 21:12:00,77.0,57.0,-100.00,NNW,345,2.0,7.0,51,0.00,,,0.00,,2013-04-17 01:12:00,
2013-04-16 21:32:00,68.0,58.0,-100.00,ESE,117,1.0,4.0,70,0.00,,,0.00,,2013-04-17 01:32:00,
2013-04-16 21:42:00,68.0,58.0,-100.00,ESE,117,1.0,4.0,70,0.00,,,0.00,,2013-04-17 01:42:00,
2013-04-16 21:52:00,68.0,58.0,-100.00,ESE,117,1.0,4.0,70,0.00,,,0.00,,2013-04-17 01:52:00,
2013-04-16 22:02:00,68.0,58.0,-100.00,ESE,117,1.0,4.0,70,0.00,,,0.00,,2013-04-17 02:02:00,
2013-04-16 22:12:00,68.0,58.0,-100.00,ESE,117,1.0,4.0,70,0.00,,,0.00,,2013-04-17 02:12:00,
2013-04-16 22:42:00,65.0,58.0,-100.00,NNE,23,1.0,4.0,78,0.00,,,0.00,,2013-04-17 02:42:00,
2013-04-16 22:52:00,65.0,58.0,-100.00,NNE,23,1.0,4.0,78,0.00,,,0.00,,2013-04-17 02:52:00,
2013-04-16 23:02:00,65.0,58.0,-100.00,NNE,23,1.0,4.0,78,0.00,,,0.00,,2013-04-17 03:02:00,
2013-04-16 23:12:00,65.0,58.0,-100.00,NNE,23,1.0,4.0,78,0.00,,,0.00,,2013-04-17 03:12:00,
2013-04-16 23:43:00,65.0,59.0,-100.00,ENE,65,0.0,3.0,81,0.00,,,0.00,,2013-04-17 03:43:00,
2013-04-16 23:53:00,65.0,59.0,-100.00,ENE,65,0.0,3.0,81,0.00,,,0.00,,2013-04-17 03:53:00,